createdAt,value
2022-09-15T00:01:24.924Z,98819.80
2022-09-15T00:03:58.026Z,98812.40
2022-09-15T00:06:30.728Z,98811.80
2022-09-15T00:09:04.952Z,98815.80
2022-09-15T00:11:39.823Z,98814.20
2022-09-15T00:14:13.022Z,98809.40
2022-09-15T00:16:45.740Z,98803.80
2022-09-15T00:19:18.583Z,98803.00
2022-09-15T00:21:51.573Z,98799.00
2022-09-15T00:24:24.343Z,98791.40
2022-09-15T00:26:57.348Z,98788.00
2022-09-15T00:29:30.020Z,98780.80
2022-09-15T00:32:02.908Z,98778.80
2022-09-15T00:34:36.026Z,98770.20
2022-09-15T00:37:09.185Z,98771.60
2022-09-15T00:39:42.383Z,98766.80
2022-09-15T00:42:18.948Z,98767.60
2022-09-15T00:44:56.795Z,98763.00
2022-09-15T00:47:41.203Z,98766.20
2022-09-15T00:50:19.105Z,98768.60
2022-09-15T00:52:58.108Z,98770.40
2022-09-15T00:55:37.268Z,98774.20
2022-09-15T00:58:13.331Z,98775.60
2022-09-15T01:00:55.566Z,98786.80
2022-09-15T01:03:31.420Z,98785.60
2022-09-15T01:06:10.636Z,98781.00
2022-09-15T01:08:49.258Z,98779.00
2022-09-15T01:11:22.441Z,98776.60
2022-09-15T01:13:55.217Z,98776.20
2022-09-15T01:16:38.153Z,98789.00
2022-09-15T01:19:37.545Z,98788.60
2022-09-15T01:22:25.601Z,98782.40
2022-09-15T01:25:11.126Z,98784.80
2022-09-15T01:28:39.545Z,98781.40
2022-09-15T01:31:20.780Z,98779.40
2022-09-15T01:34:00.097Z,98772.00
2022-09-15T01:36:44.321Z,98765.60
2022-09-15T01:39:22.830Z,98762.60
2022-09-15T01:42:00.349Z,98769.00
2022-09-15T01:44:38.843Z,98767.60
2022-09-15T01:47:17.260Z,98772.60
2022-09-15T01:49:57.887Z,98775.80
2022-09-15T01:52:31.581Z,98777.40
2022-09-15T01:55:14.532Z,98778.80
2022-09-15T01:57:47.232Z,98779.20
2022-09-15T02:00:20.856Z,98782.40
2022-09-15T02:02:59.863Z,98778.80
2022-09-15T02:05:40.215Z,98771.60
2022-09-15T02:08:23.373Z,98770.80
2022-09-15T02:11:05.742Z,98776.20
2022-09-15T02:13:48.915Z,98780.40
2022-09-15T02:16:25.618Z,98781.60
2022-09-15T02:19:13.274Z,98781.40
2022-09-15T02:21:57.418Z,98786.20
2022-09-15T02:24:38.090Z,98793.60
2022-09-15T02:27:16.845Z,98796.00
2022-09-15T02:29:51.240Z,98795.60
2022-09-15T02:32:27.706Z,98797.80
2022-09-15T02:35:05.089Z,98797.00
2022-09-15T02:37:38.696Z,98799.20
2022-09-15T02:40:13.053Z,98805.40
2022-09-15T02:42:56.137Z,98798.20
2022-09-15T02:45:30.681Z,98793.20
2022-09-15T02:48:04.470Z,98800.00
2022-09-15T02:50:37.725Z,98801.80
2022-09-15T02:53:10.850Z,98796.80
2022-09-15T02:55:43.527Z,98788.80
2022-09-15T02:58:16.311Z,98796.40
2022-09-15T03:00:49.032Z,98798.80
2022-09-15T03:03:22.387Z,98801.60
2022-09-15T03:05:55.268Z,98800.00
2022-09-15T03:08:28.473Z,98798.60
2022-09-15T03:11:02.893Z,98794.80
2022-09-15T03:13:35.677Z,98791.00
2022-09-15T03:16:14.842Z,98794.40
2022-09-15T03:18:48.450Z,98802.80
2022-09-15T03:21:22.922Z,98808.60
2022-09-15T03:23:55.625Z,98805.00
2022-09-15T03:26:28.488Z,98809.40
2022-09-15T03:29:01.177Z,98820.60
2022-09-15T03:31:34.108Z,98827.60
2022-09-15T03:34:06.941Z,98834.40
2022-09-15T03:36:40.028Z,98833.20
2022-09-15T03:39:14.593Z,98835.80
2022-09-15T03:41:47.434Z,98846.80
2022-09-15T03:44:20.135Z,98852.20
2022-09-15T03:46:53.307Z,98854.20
2022-09-15T03:49:26.727Z,98841.80
2022-09-15T03:51:59.694Z,98849.20
2022-09-15T03:54:32.855Z,98864.40
2022-09-15T03:57:05.867Z,98873.60
2022-09-15T03:59:38.790Z,98883.80
2022-09-15T04:02:11.599Z,98893.80
2022-09-15T04:04:44.525Z,98892.00
2022-09-15T04:07:17.376Z,98894.20
2022-09-15T04:09:50.285Z,98887.20
2022-09-15T04:12:23.124Z,98881.20
2022-09-15T04:14:56.113Z,98868.60
2022-09-15T04:17:28.896Z,98866.20
2022-09-15T04:20:01.524Z,98878.60
2022-09-15T04:22:36.264Z,98888.80
2022-09-15T04:25:11.057Z,98890.60
2022-09-15T04:27:43.980Z,98887.40
2022-09-15T04:30:17.521Z,98896.40
2022-09-15T04:32:51.989Z,98906.40
2022-09-15T04:35:24.765Z,98898.60
2022-09-15T04:37:58.598Z,98890.60
2022-09-15T04:40:32.341Z,98895.20
2022-09-15T04:43:06.803Z,98902.00
2022-09-15T04:45:39.482Z,98905.60
2022-09-15T04:48:12.262Z,98904.80
2022-09-15T04:50:44.849Z,98900.60
2022-09-15T04:53:18.010Z,98897.80
2022-09-15T04:55:51.118Z,98905.60
2022-09-15T04:58:23.897Z,98911.00
2022-09-15T05:00:56.713Z,98915.20
2022-09-15T05:03:29.465Z,98923.60
2022-09-15T05:06:02.044Z,98926.40
2022-09-15T05:08:34.723Z,98930.40
2022-09-15T05:11:12.365Z,98928.60
2022-09-15T05:13:45.818Z,98931.60
2022-09-15T05:16:22.200Z,98926.00
2022-09-15T05:18:57.252Z,98919.20
2022-09-15T05:21:30.768Z,98919.60
2022-09-15T05:24:03.831Z,98919.80
2022-09-15T05:26:36.495Z,98920.00
2022-09-15T05:29:09.398Z,98915.80
2022-09-15T05:31:42.338Z,98924.60
2022-09-15T05:34:15.654Z,98928.80
2022-09-15T05:36:48.640Z,98930.00
2022-09-15T05:39:21.487Z,98936.60
2022-09-15T05:41:54.412Z,98942.00
2022-09-15T05:44:27.501Z,98941.80
2022-09-15T05:47:00.291Z,98942.20
2022-09-15T05:49:34.188Z,98945.20
2022-09-15T05:52:08.220Z,98946.80
2022-09-15T05:54:40.936Z,98942.00
2022-09-15T05:57:13.657Z,98942.40
2022-09-15T05:59:46.442Z,98944.60
2022-09-15T06:02:19.479Z,98944.20
2022-09-15T06:04:52.418Z,98943.20
2022-09-15T06:07:25.203Z,98949.40
2022-09-15T06:09:57.992Z,98956.20
2022-09-15T06:12:31.388Z,98948.60
2022-09-15T06:15:04.584Z,98944.60
2022-09-15T06:17:37.480Z,98950.80
2022-09-15T06:20:12.307Z,98951.40
2022-09-15T06:22:44.970Z,98952.00
2022-09-15T06:25:17.853Z,98948.00
2022-09-15T06:27:54.631Z,98943.00
2022-09-15T06:30:27.614Z,98947.20
2022-09-15T06:33:00.596Z,98949.20
2022-09-15T06:35:33.485Z,98953.40
2022-09-15T06:38:06.757Z,98954.60
2022-09-15T06:40:39.479Z,98960.00
2022-09-15T06:43:12.360Z,98957.80
2022-09-15T06:45:45.163Z,98963.00
2022-09-15T06:48:24.464Z,98957.40
2022-09-15T06:50:59.619Z,98956.40
2022-09-15T06:53:34.443Z,98963.60
2022-09-15T06:56:10.317Z,98963.40
2022-09-15T06:58:45.201Z,98966.20
2022-09-15T07:01:26.767Z,98967.00
2022-09-15T07:04:03.019Z,98969.00
2022-09-15T07:06:37.390Z,98969.80
2022-09-15T07:09:12.225Z,98970.80
2022-09-15T07:11:45.146Z,98971.00
2022-09-15T07:14:18.196Z,98978.80
2022-09-15T07:16:51.037Z,98974.40
2022-09-15T07:19:23.964Z,98981.80
2022-09-15T07:21:56.756Z,98984.20
2022-09-15T07:24:29.626Z,98996.40
2022-09-15T07:27:02.513Z,99001.40
2022-09-15T07:29:37.805Z,98993.40
2022-09-15T07:32:10.735Z,99002.00
2022-09-15T07:34:43.720Z,99001.00
2022-09-15T07:37:16.611Z,99004.20
2022-09-15T07:39:49.730Z,99004.80
2022-09-15T07:42:22.503Z,99010.00
2022-09-15T07:44:55.625Z,99012.80
2022-09-15T07:47:28.352Z,99013.00
2022-09-15T07:50:01.774Z,99022.60
2022-09-15T07:52:37.495Z,99029.60
2022-09-15T07:55:12.413Z,99035.00
2022-09-15T07:57:45.162Z,99037.00
2022-09-15T08:00:19.623Z,99046.00
2022-09-15T08:02:52.528Z,99050.80
2022-09-15T08:05:28.294Z,99049.40
2022-09-15T08:08:02.777Z,99051.00
2022-09-15T08:10:36.115Z,99059.20
2022-09-15T08:13:09.116Z,99066.20
2022-09-15T08:15:42.311Z,99065.80
2022-09-15T08:18:15.466Z,99059.80
2022-09-15T08:20:48.263Z,99065.00
2022-09-15T08:23:21.433Z,99068.60
2022-09-15T08:25:54.555Z,99073.60
2022-09-15T08:28:27.505Z,99073.80
2022-09-15T08:31:08.844Z,99066.40
2022-09-15T08:33:45.446Z,99054.60
2022-09-15T08:36:18.883Z,99059.40
2022-09-15T08:38:51.768Z,99053.80
2022-09-15T08:41:28.878Z,99059.40
2022-09-15T08:44:12.351Z,99054.40
2022-09-15T08:46:52.466Z,99054.20
2022-09-15T08:49:50.154Z,99055.40
2022-09-15T08:52:24.726Z,99043.00
2022-09-15T08:55:02.569Z,99040.40
2022-09-15T08:57:35.390Z,99033.20
2022-09-15T09:00:14.918Z,99027.60
2022-09-15T09:03:24.271Z,99027.40
2022-09-15T09:06:03.486Z,99028.80
2022-09-15T09:09:16.647Z,99027.00
2022-09-15T09:12:14.709Z,99015.20
2022-09-15T09:15:05.430Z,99014.00
2022-09-15T09:17:59.847Z,99027.20
2022-09-15T09:20:45.455Z,99024.40
2022-09-15T09:23:23.634Z,99024.80
2022-09-15T09:25:57.495Z,99025.00
2022-09-15T09:28:38.062Z,99018.20
2022-09-15T09:31:19.094Z,99014.40
2022-09-15T09:33:57.613Z,99021.40
2022-09-15T09:36:30.458Z,99023.40
2022-09-15T09:39:05.830Z,99020.40
2022-09-15T09:41:39.899Z,99019.00
2022-09-15T09:44:16.786Z,99017.60
2022-09-15T09:46:50.483Z,99015.60
2022-09-15T09:49:26.842Z,99024.40
2022-09-15T09:52:03.518Z,99023.80
2022-09-15T09:54:37.756Z,99029.00
2022-09-15T09:57:35.104Z,99032.20
2022-09-15T10:00:35.047Z,99027.20
2022-09-15T10:03:19.872Z,99029.00
2022-09-15T10:06:08.537Z,99019.00
2022-09-15T10:08:58.136Z,99013.00
2022-09-15T10:11:47.944Z,99024.20
2022-09-15T10:14:33.060Z,99022.20
2022-09-15T10:17:10.519Z,99022.40
2022-09-15T10:19:51.323Z,99012.20
2022-09-15T10:22:31.645Z,99010.80
2022-09-15T10:25:35.679Z,99015.60
2022-09-15T10:28:21.876Z,99009.60
2022-09-15T10:31:08.328Z,99010.00
2022-09-15T10:33:45.104Z,99014.80
2022-09-15T10:36:23.821Z,99017.20
2022-09-15T10:39:08.144Z,99016.80
2022-09-15T10:41:47.130Z,99023.00
2022-09-15T10:44:35.520Z,99023.40
2022-09-15T10:47:23.152Z,99027.40
2022-09-15T10:50:13.030Z,99020.20
2022-09-15T10:53:07.898Z,99024.80
2022-09-15T10:55:57.717Z,99031.40
2022-09-15T10:58:48.911Z,99035.20
2022-09-15T11:01:41.251Z,99027.20
2022-09-15T11:04:32.903Z,99027.40
2022-09-15T11:07:14.278Z,99020.40
2022-09-15T11:09:51.801Z,99023.60
2022-09-15T11:12:43.636Z,99021.60
2022-09-15T11:15:34.646Z,99017.00
2022-09-15T11:18:27.866Z,99013.40
2022-09-15T11:21:18.368Z,99011.80
2022-09-15T11:23:58.752Z,99010.40
2022-09-15T11:26:38.136Z,99004.60
2022-09-15T11:29:19.529Z,99003.20
2022-09-15T11:31:56.969Z,98997.00
2022-09-15T11:34:36.422Z,99004.80
2022-09-15T11:37:15.715Z,99004.60
2022-09-15T11:39:56.014Z,99003.60
2022-09-15T11:42:33.974Z,98999.00
2022-09-15T11:45:15.164Z,98995.60
2022-09-15T11:47:51.704Z,98998.00
2022-09-15T11:50:30.138Z,98998.00
2022-09-15T11:53:10.408Z,98990.60
2022-09-15T11:55:44.819Z,98992.80
2022-09-15T11:58:27.331Z,98985.80
2022-09-15T12:01:10.356Z,98994.00
2022-09-15T12:03:50.299Z,98987.40
2022-09-15T12:06:28.211Z,98987.60
2022-09-15T12:09:03.362Z,98985.20
2022-09-15T12:11:42.340Z,98982.00
2022-09-15T12:14:20.886Z,98978.20
2022-09-15T12:16:53.900Z,98985.60
2022-09-15T12:19:50.101Z,98985.80
2022-09-15T12:22:30.178Z,98981.40
2022-09-15T12:25:07.320Z,98975.20
2022-09-15T12:27:40.249Z,98975.80
2022-09-15T12:30:41.271Z,98974.00
2022-09-15T12:33:55.027Z,98976.00
2022-09-15T12:36:47.014Z,98975.20
2022-09-15T12:39:38.804Z,98973.80
2022-09-15T12:42:22.716Z,98965.20
2022-09-15T12:44:59.903Z,98966.00
2022-09-15T12:47:37.284Z,98963.60
2022-09-15T12:50:26.891Z,98969.60
2022-09-15T12:53:03.494Z,98968.80
2022-09-15T12:55:39.021Z,98966.60
2022-09-15T12:58:18.835Z,98967.60
2022-09-15T13:01:17.225Z,98968.40
2022-09-15T13:04:29.232Z,98962.80
2022-09-15T13:07:35.514Z,98962.80
2022-09-15T13:10:43.414Z,98964.40
2022-09-15T13:13:23.851Z,98961.00
2022-09-15T13:15:58.603Z,98960.40
2022-09-15T13:18:33.620Z,98958.00
2022-09-15T13:21:14.485Z,98958.40
2022-09-15T13:23:53.244Z,98961.40
2022-09-15T13:26:30.610Z,98957.40
2022-09-15T13:29:03.784Z,98951.20
2022-09-15T13:31:51.200Z,98947.20
2022-09-15T13:35:04.523Z,98943.20
2022-09-15T13:38:54.857Z,98947.80
2022-09-15T13:42:10.535Z,98945.20
2022-09-15T13:45:09.422Z,98944.40
2022-09-15T13:48:10.987Z,98940.40
2022-09-15T13:50:49.087Z,98940.60
2022-09-15T13:53:36.590Z,98940.20
2022-09-15T13:56:12.968Z,98942.00
2022-09-15T13:58:58.083Z,98942.60
2022-09-15T14:01:34.827Z,98941.80
2022-09-15T14:04:11.512Z,98938.60
2022-09-15T14:06:48.090Z,98942.00
2022-09-15T14:09:27.258Z,98937.60
2022-09-15T14:12:09.031Z,98940.00
2022-09-15T14:14:45.839Z,98942.40
2022-09-15T14:17:25.942Z,98940.00
2022-09-15T14:20:01.150Z,98946.60
2022-09-15T14:22:36.526Z,98945.60
2022-09-15T14:25:18.899Z,98946.00
2022-09-15T14:27:54.102Z,98945.00
2022-09-15T14:30:30.769Z,98954.20
2022-09-15T14:33:05.265Z,98959.00
2022-09-15T14:35:40.810Z,98951.20
2022-09-15T14:38:25.535Z,98947.20
2022-09-15T14:41:01.947Z,98946.60
2022-09-15T14:43:39.458Z,98942.20
2022-09-15T14:46:21.202Z,98941.40
2022-09-15T14:48:53.804Z,98941.20
2022-09-15T14:51:33.157Z,98940.60
2022-09-15T14:54:07.146Z,98936.00
2022-09-15T14:56:44.310Z,98936.40
2022-09-15T14:59:24.486Z,98946.40
2022-09-15T15:02:09.106Z,98946.20
2022-09-15T15:04:45.622Z,98939.00
2022-09-15T15:07:24.252Z,98935.60
2022-09-15T15:10:00.295Z,98935.20
2022-09-15T15:12:36.296Z,98933.60
2022-09-15T15:15:14.035Z,98935.60
2022-09-15T15:17:49.956Z,98933.60
2022-09-15T15:20:27.192Z,98932.80
2022-09-15T15:23:19.026Z,98935.40
2022-09-15T15:25:52.300Z,98928.00
2022-09-15T15:28:37.626Z,98929.60
2022-09-15T15:31:19.774Z,98927.40
2022-09-15T15:33:59.534Z,98921.80
2022-09-15T15:36:35.503Z,98917.60
2022-09-15T15:39:21.182Z,98916.60
2022-09-15T15:42:05.302Z,98924.40
2022-09-15T15:44:38.217Z,98932.00
2022-09-15T15:47:29.972Z,98936.80
2022-09-15T15:50:14.204Z,98934.80
2022-09-15T15:52:47.751Z,98938.40
2022-09-15T15:55:22.646Z,98943.40
2022-09-15T15:57:57.168Z,98943.80
2022-09-15T16:00:34.165Z,98946.60
2022-09-15T16:03:08.312Z,98938.40
2022-09-15T16:05:43.836Z,98944.40
2022-09-15T16:08:25.580Z,98948.00
2022-09-15T16:10:59.437Z,98943.80
2022-09-15T16:13:32.684Z,98940.80
2022-09-15T16:16:15.503Z,98939.60
2022-09-15T16:18:49.102Z,98939.80
2022-09-15T16:21:28.650Z,98947.00
2022-09-15T16:24:01.431Z,98954.20
2022-09-15T16:26:35.753Z,98956.60
2022-09-15T16:29:08.730Z,98956.20
2022-09-15T16:31:43.144Z,98958.60
2022-09-15T16:34:19.597Z,98955.60
2022-09-15T16:36:52.400Z,98961.40
2022-09-15T16:39:25.392Z,98970.20
2022-09-15T16:44:35.775Z,98982.40
2022-09-15T16:47:08.648Z,98977.20
2022-09-15T16:49:42.552Z,98978.40
2022-09-15T16:52:17.494Z,98977.60
2022-09-15T16:54:50.472Z,98981.00
2022-09-15T16:57:23.362Z,98980.40
2022-09-15T16:59:56.154Z,98980.20
2022-09-15T17:02:29.436Z,98976.80
2022-09-15T17:05:02.326Z,98978.40
2022-09-15T17:07:35.305Z,98969.80
2022-09-15T17:10:10.194Z,98975.80
2022-09-15T17:12:43.740Z,98977.80
2022-09-15T17:15:24.746Z,98981.40
2022-09-15T17:17:58.448Z,98979.00
2022-09-15T17:20:34.745Z,98979.40
2022-09-15T17:23:23.640Z,98974.60
2022-09-15T17:25:59.291Z,98975.40
2022-09-15T17:28:33.942Z,98985.00
2022-09-15T17:31:13.465Z,98985.40
2022-09-15T17:33:47.575Z,98981.40
2022-09-15T17:36:20.782Z,98985.40
2022-09-15T17:38:53.588Z,98984.20
2022-09-15T17:41:26.736Z,98993.20
2022-09-15T17:43:59.926Z,98994.20
2022-09-15T17:46:32.958Z,98989.40
2022-09-15T17:49:06.346Z,98998.60
2022-09-15T17:51:39.158Z,98995.00
2022-09-15T17:54:14.244Z,98996.20
2022-09-15T17:56:47.029Z,99004.20
2022-09-15T17:59:19.716Z,99006.20
2022-09-15T18:01:52.886Z,99003.20
2022-09-15T18:04:25.773Z,99011.60
2022-09-15T18:06:59.269Z,99011.00
2022-09-15T18:09:32.377Z,99011.60
2022-09-15T18:12:05.920Z,99020.20
2022-09-15T18:14:38.660Z,99012.60
2022-09-15T18:17:12.506Z,99019.80
2022-09-15T18:19:45.350Z,99022.00
2022-09-15T18:22:18.812Z,99029.60
2022-09-15T18:24:51.628Z,99023.60
2022-09-15T18:27:24.602Z,99024.00
2022-09-15T18:29:57.760Z,99025.60
2022-09-15T18:32:30.574Z,99034.00
2022-09-15T18:35:03.764Z,99032.00
2022-09-15T18:37:37.120Z,99032.60
2022-09-15T18:40:13.972Z,99028.20
2022-09-15T18:42:47.402Z,99033.20
2022-09-15T18:45:23.038Z,99035.40
2022-09-15T18:47:57.001Z,99032.40
2022-09-15T18:50:29.879Z,99037.20
2022-09-15T18:53:02.658Z,99039.80
2022-09-15T18:55:36.054Z,99042.00
2022-09-15T18:58:08.892Z,99046.00
2022-09-15T19:00:42.248Z,99048.20
2022-09-15T19:03:15.529Z,99047.40
2022-09-15T19:05:48.933Z,99049.60
2022-09-15T19:08:22.422Z,99054.00
2022-09-15T19:11:02.459Z,99053.20
2022-09-15T19:13:35.982Z,99055.60
2022-09-15T19:16:10.683Z,99060.60
2022-09-15T19:18:45.228Z,99063.20
2022-09-15T19:21:18.804Z,99065.60
2022-09-15T19:23:51.714Z,99067.20
2022-09-15T19:26:28.930Z,99068.00
2022-09-15T19:29:01.786Z,99073.60
2022-09-15T19:31:37.439Z,99075.40
2022-09-15T19:34:12.879Z,99077.80
2022-09-15T19:36:45.970Z,99074.40
2022-09-15T19:39:19.282Z,99076.80
2022-09-15T19:41:52.496Z,99073.00
2022-09-15T19:44:25.954Z,99069.40
2022-09-15T19:46:59.254Z,99068.00
2022-09-15T19:49:32.237Z,99076.80
2022-09-15T19:52:06.761Z,99076.20
2022-09-15T19:54:39.750Z,99070.80
2022-09-15T19:57:12.632Z,99072.00
2022-09-15T19:59:46.090Z,99071.40
2022-09-15T20:02:20.197Z,99075.60
2022-09-15T20:07:50.083Z,99082.60
2022-09-15T20:10:23.760Z,99079.20
2022-09-15T20:12:57.740Z,99079.80
2022-09-15T20:15:32.069Z,99079.00
2022-09-15T20:18:07.266Z,99079.00
2022-09-15T20:20:44.592Z,99081.80
2022-09-15T20:23:18.331Z,99085.60
2022-09-15T20:26:04.024Z,99085.00
2022-09-15T20:28:39.368Z,99082.20
2022-09-15T20:31:16.400Z,99084.80
2022-09-15T20:33:52.320Z,99078.80
2022-09-15T20:36:30.231Z,99080.00
2022-09-15T20:39:05.851Z,99081.60
2022-09-15T20:41:40.685Z,99078.00
2022-09-15T20:44:14.592Z,99076.20
2022-09-15T20:46:48.388Z,99079.80
2022-09-15T20:49:22.447Z,99081.80
2022-09-15T20:51:56.423Z,99078.60
2022-09-15T20:54:30.040Z,99079.40
2022-09-15T20:57:03.609Z,99078.40
2022-09-15T20:59:37.891Z,99074.20
2022-09-15T21:02:12.524Z,99070.40
2022-09-15T21:04:46.136Z,99072.40
2022-09-15T21:07:20.640Z,99073.80
2022-09-15T21:09:54.345Z,99076.40
2022-09-15T21:12:28.031Z,99074.00
2022-09-15T21:15:01.815Z,99080.00
2022-09-15T21:17:35.482Z,99079.60
2022-09-15T21:20:11.117Z,99086.20
2022-09-15T21:22:44.610Z,99085.40
2022-09-15T21:25:18.498Z,99090.80
2022-09-15T21:27:52.032Z,99090.40
2022-09-15T21:30:25.476Z,99096.40
2022-09-15T21:32:58.897Z,99095.80
2022-09-15T21:35:32.863Z,99096.40
2022-09-15T21:38:07.006Z,99095.40
2022-09-15T21:40:46.418Z,99095.80
2022-09-15T21:43:20.391Z,99092.20
2022-09-15T21:45:57.948Z,99095.40
2022-09-15T21:48:32.768Z,99093.00
2022-09-15T21:51:07.867Z,99096.20
2022-09-15T21:53:42.519Z,99094.40
2022-09-15T21:56:16.638Z,99095.80
2022-09-15T21:58:50.350Z,99107.40
2022-09-15T22:01:26.817Z,99108.40
2022-09-15T22:04:02.976Z,99111.20
2022-09-15T22:06:40.639Z,99113.80
2022-09-15T22:09:18.271Z,99113.80
2022-09-15T22:11:52.289Z,99118.00
2022-09-15T22:14:25.872Z,99113.40
2022-09-15T22:16:59.428Z,99121.00
2022-09-15T22:19:33.183Z,99127.40
2022-09-15T22:22:06.842Z,99129.60
2022-09-15T22:24:40.544Z,99123.80
2022-09-15T22:27:14.860Z,99124.80
2022-09-15T22:29:48.560Z,99129.20
2022-09-15T22:32:22.165Z,99132.80
2022-09-15T22:34:56.069Z,99139.20
2022-09-15T22:37:30.908Z,99141.80
2022-09-15T22:40:05.014Z,99144.60
2022-09-15T22:42:38.878Z,99149.40
2022-09-15T22:45:14.067Z,99149.40
2022-09-15T22:47:47.464Z,99151.00
2022-09-15T22:50:22.053Z,99147.40
2022-09-15T22:52:56.404Z,99148.60
2022-09-15T22:55:31.404Z,99149.60
2022-09-15T22:58:04.959Z,99150.40
2022-09-15T23:00:40.318Z,99154.00
2022-09-15T23:03:13.836Z,99153.40
2022-09-15T23:05:46.912Z,99147.20
2022-09-15T23:08:19.591Z,99149.00
2022-09-15T23:10:52.588Z,99156.00
2022-09-15T23:13:25.265Z,99156.40
2022-09-15T23:15:58.192Z,99144.00
2022-09-15T23:18:31.646Z,99147.20
2022-09-15T23:21:07.496Z,99142.60
2022-09-15T23:23:43.425Z,99144.80
2022-09-15T23:26:18.691Z,99146.20
2022-09-15T23:28:51.786Z,99138.80
2022-09-15T23:31:24.918Z,99138.00
2022-09-15T23:33:57.961Z,99141.80
2022-09-15T23:36:31.047Z,99141.20
2022-09-15T23:39:03.716Z,99143.60
2022-09-15T23:41:36.958Z,99145.80
2022-09-15T23:44:10.001Z,99148.80
2022-09-15T23:46:42.882Z,99142.20
2022-09-15T23:49:18.709Z,99146.20
2022-09-15T23:51:51.739Z,99148.00
2022-09-15T23:54:24.410Z,99144.00
2022-09-15T23:56:57.191Z,99146.60
2022-09-15T23:59:29.986Z,99156.60
